Time;durP1;ratioP1;P1;durP2;ratioP2;P2;SDS_P1;SDS_P2;PMS_P1;PMS_P2;Temp;Humidity;BMP_temperature;BMP_pressure;BME280_temperature;BME280_humidity;BME280_pressure;Samples;Min_cycle;Max_cycle;Signal;HPM_P1;HPM_P2
2023/05/09 00:01:13;;;;;;;19.30;9.80;;;;;;;26.14;42.12;101827.28;5053626;28;20499;-71
2023/05/09 00:03:39;;;;;;;23.98;9.50;;;;;;;26.33;42.11;101818.16;5065162;28;20090;-72
2023/05/09 00:06:06;;;;;;;18.48;9.32;;;;;;;26.44;41.75;101815.66;5050524;28;20378;-72
2023/05/09 00:08:32;;;;;;;19.63;9.30;;;;;;;26.21;42.37;101820.63;5059922;28;20081;-72
2023/05/09 00:10:57;;;;;;;25.23;9.60;;;;;;;26.33;41.91;101816.31;5067726;28;20028;-72
2023/05/09 00:13:23;;;;;;;18.10;8.98;;;;;;;26.11;42.34;101811.41;5051083;28;20352;-72
2023/05/09 00:15:49;;;;;;;20.88;9.20;;;;;;;25.78;43.15;101814.28;5053456;28;20043;-71
2023/05/09 00:18:14;;;;;;;19.05;9.45;;;;;;;25.52;43.56;101814.81;5048835;28;20036;-72
2023/05/09 00:20:40;;;;;;;19.83;8.23;;;;;;;26.12;42.26;101805.09;5054815;28;20467;-71
2023/05/09 00:23:06;;;;;;;18.65;8.75;;;;;;;25.21;43.62;101816.56;5064629;28;20103;-72
2023/05/09 00:25:31;;;;;;;14.93;7.70;;;;;;;26.06;42.25;101806.34;5062654;28;20116;-72
2023/05/09 00:27:57;;;;;;;14.13;7.13;;;;;;;25.83;42.35;101810.38;5064910;28;20108;-72
2023/05/09 00:30:22;;;;;;;20.45;8.27;;;;;;;25.07;44.25;101805.75;5071878;28;20248;-72
2023/05/09 00:32:48;;;;;;;15.38;7.13;;;;;;;26.07;42.38;101799.16;5063708;28;20036;-72
2023/05/09 00:35:13;;;;;;;14.32;7.68;;;;;;;25.96;42.45;101794.41;5054629;28;20055;-72
2023/05/09 00:37:39;;;;;;;14.50;6.65;;;;;;;25.97;42.35;101792.63;5062313;28;20548;-72
2023/05/09 00:40:05;;;;;;;14.82;7.35;;;;;;;25.75;42.86;101796.56;5064081;28;20028;-71
2023/05/09 00:42:31;;;;;;;14.30;7.10;;;;;;;26.13;41.62;101788.09;5052711;28;20468;-71
2023/05/09 00:44:56;;;;;;;13.80;6.72;;;;;;;25.94;41.69;101782.94;5051292;28;20112;-72
2023/05/09 00:47:22;;;;;;;18.33;7.82;;;;;;;24.95;43.71;101777.03;5057948;28;20123;-71
2023/05/09 00:49:48;;;;;;;15.82;7.05;;;;;;;25.29;42.97;101772.44;5067612;28;20477;-72
2023/05/09 00:52:14;;;;;;;12.82;6.15;;;;;;;25.54;42.53;101767.44;5070129;28;20036;-72
2023/05/09 00:54:39;;;;;;;13.85;6.45;;;;;;;25.78;41.92;101774.97;5068748;28;20167;-72
2023/05/09 00:57:05;;;;;;;13.85;7.03;;;;;;;25.40;43.13;101770.94;5070492;28;20499;-71
2023/05/09 00:59:30;;;;;;;16.00;7.43;;;;;;;25.02;43.24;101770.41;5068494;28;20396;-72
2023/05/09 01:01:56;;;;;;;15.05;7.80;;;;;;;25.51;42.69;101762.28;5069585;28;20032;-71
2023/05/09 01:04:21;;;;;;;15.02;7.38;;;;;;;25.27;42.70;101758.31;5069383;28;20070;-72
2023/05/09 01:07:18;;;;;;;12.98;6.07;;;;;;;24.47;45.10;101764.47;5068949;28;20400;-72
2023/05/09 01:10:06;;;;;;;14.45;6.30;;;;;;;25.83;41.61;101746.09;5053517;28;20439;-72
2023/05/09 01:12:46;;;;;;;13.55;6.40;;;;;;;25.77;41.74;101741.09;5051381;28;20366;-72
2023/05/09 01:15:28;;;;;;;11.55;5.63;;;;;;;25.82;42.23;101746.19;5049991;28;20488;-71
2023/05/09 01:18:07;;;;;;;13.38;6.53;;;;;;;26.27;41.09;101727.41;5055221;28;20499;-72
2023/05/09 01:20:45;;;;;;;11.15;6.13;;;;;;;26.04;41.18;101727.03;5069600;28;20119;-72
2023/05/09 01:23:11;;;;;;;13.63;6.45;;;;;;;26.03;41.38;101731.50;5060303;28;20086;-72
2023/05/09 01:25:50;;;;;;;12.57;6.28;;;;;;;25.60;42.77;101727.88;5050060;28;20047;-71
2023/05/09 01:28:35;;;;;;;11.52;6.38;;;;;;;25.84;41.78;101721.06;5054169;28;20877;-72
2023/05/09 01:31:02;;;;;;;12.45;6.18;;;;;;;25.36;42.73;101714.97;5070570;28;20123;-72
2023/05/09 01:33:35;;;;;;;11.18;5.70;;;;;;;24.81;44.03;101708.31;5070391;28;20043;-72
2023/05/09 01:36:06;;;;;;;9.13;5.07;;;;;;;25.51;42.33;101706.06;5057634;28;20527;-72
2023/05/09 01:38:35;;;;;;;10.53;5.63;;;;;;;25.34;42.73;101708.88;5065459;28;20021;-71
2023/05/09 01:41:04;;;;;;;12.35;6.35;;;;;;;24.26;44.84;101707.69;5049935;28;20029;-71
2023/05/09 01:43:32;;;;;;;12.77;6.30;;;;;;;23.87;45.49;101707.03;5058553;28;20028;-72
2023/05/09 01:45:59;;;;;;;10.02;5.10;;;;;;;24.56;44.52;101705.19;5070370;28;20500;-71
2023/05/09 01:48:27;;;;;;;11.55;5.60;;;;;;;24.73;44.42;101700.72;5066986;28;20035;-71
2023/05/09 01:50:54;;;;;;;9.75;5.75;;;;;;;24.35;44.63;101693.84;5055857;28;20538;-72
2023/05/09 01:53:21;;;;;;;11.30;6.13;;;;;;;24.61;44.34;101690.69;5049649;28;20025;-71
2023/05/09 01:55:50;;;;;;;9.57;5.72;;;;;;;24.71;44.08;101683.91;5049758;28;20029;-72
2023/05/09 01:58:17;;;;;;;9.20;5.35;;;;;;;25.07;43.72;101682.75;5052846;28;20029;-71
2023/05/09 02:00:44;;;;;;;10.95;5.50;;;;;;;24.32;45.06;101687.84;5051082;28;20029;-72
2023/05/09 02:03:09;;;;;;;10.00;5.65;;;;;;;25.10;43.73;101687.06;5048254;28;20386;-72
2023/05/09 02:05:36;;;;;;;8.80;4.97;;;;;;;25.80;41.94;101682.03;5057822;28;20024;-72
2023/05/09 02:08:01;;;;;;;10.43;5.60;;;;;;;25.13;43.18;101677.06;5065082;28;20058;-72
2023/05/09 02:10:28;;;;;;;9.18;5.00;;;;;;;24.99;43.77;101676.97;5048542;28;20025;-71
2023/05/09 02:12:54;;;;;;;9.57;5.03;;;;;;;24.56;44.38;101673.13;5049481;28;20129;-71
2023/05/09 02:15:20;;;;;;;10.00;5.15;;;;;;;24.78;44.59;101669.25;5067550;28;20025;-71
2023/05/09 02:17:46;;;;;;;8.13;4.70;;;;;;;24.32;45.31;101674.47;5068723;28;20031;-72
2023/05/09 02:20:12;;;;;;;7.25;4.13;;;;;;;24.64;44.62;101669.16;5066974;28;20028;-72
2023/05/09 02:22:39;;;;;;;11.23;4.55;;;;;;;24.53;44.37;101667.06;5064966;28;20040;-72
2023/05/09 02:25:06;;;;;;;13.18;5.18;;;;;;;25.54;42.63;101665.75;5050054;28;20033;-72
2023/05/09 02:27:33;;;;;;;10.82;4.72;;;;;;;25.42;42.47;101665.59;5066004;28;20398;-71
2023/05/09 02:30:03;;;;;;;8.02;4.47;;;;;;;25.23;42.69;101662.16;5050352;28;20028;-72
2023/05/09 02:32:31;;;;;;;7.35;4.15;;;;;;;25.31;42.55;101658.19;5047396;28;20036;-72
2023/05/09 02:34:58;;;;;;;9.73;4.55;;;;;;;25.44;42.74;101659.19;5051905;28;20071;-72
2023/05/09 02:37:24;;;;;;;8.50;5.03;;;;;;;25.28;43.08;101645.00;5048076;28;20228;-72
2023/05/09 02:39:54;;;;;;;8.38;4.82;;;;;;;25.48;42.08;101654.53;5062863;28;20039;-72
2023/05/09 02:42:24;;;;;;;7.72;4.05;;;;;;;24.97;42.79;101644.13;5068219;28;20033;-71
2023/05/09 02:44:53;;;;;;;7.90;4.97;;;;;;;26.03;41.25;101639.59;5070098;28;20375;-72
2023/05/09 02:47:19;;;;;;;8.05;5.53;;;;;;;25.53;42.47;101647.94;5062794;28;20052;-72
2023/05/09 02:49:44;;;;;;;8.20;4.20;;;;;;;24.69;44.00;101640.38;5056798;28;20021;-71
2023/05/09 02:52:10;;;;;;;6.90;3.97;;;;;;;24.81;43.82;101644.16;5050450;28;20115;-72
2023/05/09 02:54:36;;;;;;;7.18;4.00;;;;;;;24.65;44.38;101636.16;5051546;28;20044;-71
2023/05/09 02:57:02;;;;;;;7.35;4.03;;;;;;;25.78;42.02;101632.22;5066804;28;20031;-71
2023/05/09 02:59:28;;;;;;;8.27;4.60;;;;;;;25.81;41.75;101635.53;5054595;28;20472;-71
2023/05/09 03:01:53;;;;;;;9.52;4.57;;;;;;;25.88;41.52;101620.84;5054317;28;20467;-71
2023/05/09 03:04:18;;;;;;;8.85;4.57;;;;;;;25.52;42.13;101624.81;5048637;28;20025;-71
2023/05/09 03:06:44;;;;;;;8.23;4.47;;;;;;;25.45;42.23;101623.47;5049890;28;20119;-72
2023/05/09 03:09:10;;;;;;;9.05;4.22;;;;;;;25.22;42.45;101612.31;5064141;28;20102;-71
2023/05/09 03:11:38;;;;;;;10.00;4.35;;;;;;;25.18;43.11;101610.78;5049160;28;20055;-72
2023/05/09 03:14:07;;;;;;;8.95;3.97;;;;;;;25.05;43.13;101604.44;5063746;28;20074;-72
2023/05/09 03:16:33;;;;;;;8.40;4.18;;;;;;;25.52;42.70;101598.06;5067903;28;20097;-72
2023/05/09 03:18:58;;;;;;;7.80;4.40;;;;;;;25.22;42.84;101604.28;5068430;28;20473;-72
2023/05/09 03:21:24;;;;;;;8.05;4.13;;;;;;;25.41;42.90;101600.53;5067706;28;20033;-72
2023/05/09 03:23:49;;;;;;;8.60;4.32;;;;;;;25.56;42.40;101604.94;5061534;28;20481;-72
2023/05/09 03:26:14;;;;;;;9.07;4.82;;;;;;;25.38;42.81;101606.06;5066950;28;20029;-71
2023/05/09 03:28:40;;;;;;;7.82;4.68;;;;;;;25.26;44.22;101606.78;5060306;28;20082;-71
2023/05/09 03:31:05;;;;;;;8.10;4.50;;;;;;;24.80;44.26;101610.34;5066226;28;20039;-71
2023/05/09 03:33:31;;;;;;;8.40;4.70;;;;;;;25.18;43.56;101605.44;5067917;28;20028;-71
2023/05/09 03:35:56;;;;;;;11.05;4.80;;;;;;;25.13;43.96;101602.16;5065695;28;20385;-71
2023/05/09 03:38:23;;;;;;;10.25;4.63;;;;;;;24.88;44.67;101603.63;5056995;28;20036;-72
2023/05/09 03:40:57;;;;;;;8.40;4.50;;;;;;;24.77;45.16;101595.38;5068055;28;20059;-72
2023/05/09 03:43:23;;;;;;;9.95;4.55;;;;;;;25.22;43.65;101585.56;5055152;28;20029;-72
2023/05/09 03:45:48;;;;;;;9.68;5.20;;;;;;;25.76;43.09;101581.44;5059945;28;20033;-72
2023/05/09 03:48:13;;;;;;;9.40;5.35;;;;;;;25.28;43.63;101581.66;5048209;28;20036;-72
2023/05/09 03:50:39;;;;;;;8.60;4.50;;;;;;;25.61;43.17;101572.56;5057252;28;20029;-72
2023/05/09 03:53:05;;;;;;;9.63;5.60;;;;;;;24.75;44.86;101570.53;5058267;28;20122;-71
2023/05/09 03:55:30;;;;;;;13.43;5.13;;;;;;;24.66;45.06;101563.03;5054645;28;20120;-72
2023/05/09 03:57:56;;;;;;;11.27;5.32;;;;;;;24.59;45.76;101564.31;5051765;28;20115;-72
2023/05/09 04:00:22;;;;;;;8.18;5.00;;;;;;;24.46;45.85;101565.00;5055947;28;20036;-72
2023/05/09 04:02:48;;;;;;;12.48;5.45;;;;;;;23.93;47.36;101567.06;5065215;28;20024;-72
2023/05/09 04:05:15;;;;;;;12.13;5.63;;;;;;;24.73;45.72;101567.09;5072480;28;20029;-72
2023/05/09 04:07:40;;;;;;;11.95;5.25;;;;;;;24.93;45.10;101562.38;5083302;28;20123;-72
2023/05/09 04:10:07;;;;;;;9.15;4.88;;;;;;;25.04;44.97;101557.25;5055586;28;20116;-72
2023/05/09 04:12:32;;;;;;;9.38;5.05;;;;;;;24.46;46.51;101553.47;5058664;28;20020;-71
2023/05/09 04:14:58;;;;;;;8.63;4.93;;;;;;;24.34;46.07;101555.88;5055829;28;20692;-72
2023/05/09 04:17:23;;;;;;;12.27;6.05;;;;;;;24.62;46.07;101553.47;5071159;28;20115;-71
2023/05/09 04:19:49;;;;;;;9.77;5.57;;;;;;;24.61;46.18;101551.75;5060927;28;20068;-71
2023/05/09 04:22:15;;;;;;;10.05;5.60;;;;;;;24.44;46.50;101544.69;5070316;28;20089;-72
2023/05/09 04:24:41;;;;;;;10.77;5.90;;;;;;;24.35;46.29;101551.41;5058815;28;20029;-71
2023/05/09 04:27:06;;;;;;;12.52;6.05;;;;;;;25.23;44.77;101549.81;5055594;28;20028;-72
2023/05/09 04:29:32;;;;;;;10.85;5.18;;;;;;;24.31;46.74;101539.19;5062228;28;20041;-72
2023/05/09 04:31:58;;;;;;;14.23;6.28;;;;;;;24.18;47.59;101534.53;5070863;28;20085;-72
2023/05/09 04:34:25;;;;;;;11.52;5.35;;;;;;;24.71;46.38;101547.59;5061987;28;20445;-72
2023/05/09 04:36:50;;;;;;;10.50;5.20;;;;;;;24.62;45.42;101543.66;5050897;28;20036;-71
2023/05/09 04:39:16;;;;;;;9.52;4.95;;;;;;;24.45;46.33;101541.91;5052527;28;20032;-72
2023/05/09 04:41:43;;;;;;;10.55;5.60;;;;;;;24.94;45.51;101532.03;5060306;28;20028;-72
2023/05/09 04:44:09;;;;;;;13.23;6.03;;;;;;;25.27;45.09;101529.09;5059866;28;20442;-72
2023/05/09 04:46:34;;;;;;;11.50;5.28;;;;;;;24.86;45.51;101529.78;5051579;28;20036;-72
2023/05/09 04:49:00;;;;;;;10.38;5.53;;;;;;;24.69;46.25;101533.47;5055266;28;20037;-71
2023/05/09 04:51:25;;;;;;;7.90;5.15;;;;;;;24.56;45.80;101528.81;5051916;28;20029;-72
2023/05/09 04:53:51;;;;;;;12.38;5.10;;;;;;;24.26;47.39;101519.88;5068673;28;20048;-72
2023/05/09 04:56:16;;;;;;;12.00;5.60;;;;;;;25.11;45.65;101517.63;5071621;28;20028;-71
2023/05/09 04:58:41;;;;;;;10.23;5.85;;;;;;;25.37;44.65;101500.84;5059035;28;20047;-72
2023/05/09 05:01:07;;;;;;;9.10;5.32;;;;;;;25.24;44.83;101494.53;5052169;28;20021;-71
2023/05/09 05:03:32;;;;;;;7.28;4.45;;;;;;;25.45;44.44;101489.69;5054914;28;20040;-72
2023/05/09 05:05:58;;;;;;;9.82;5.35;;;;;;;24.90;45.56;101496.56;5057900;28;20039;-72
2023/05/09 05:08:23;;;;;;;10.27;5.50;;;;;;;23.85;47.98;101490.06;5051999;28;20032;-72
2023/05/09 05:10:49;;;;;;;11.25;4.72;;;;;;;24.02;48.28;101490.97;5059697;28;20045;-72
2023/05/09 05:13:15;;;;;;;9.38;4.97;;;;;;;23.50;48.70;101479.50;5068832;28;20408;-72
2023/05/09 05:15:41;;;;;;;9.02;4.45;;;;;;;24.12;47.86;101488.63;5055843;28;20021;-72
2023/05/09 05:18:06;;;;;;;10.07;4.85;;;;;;;24.20;47.06;101473.88;5067058;28;20029;-72
2023/05/09 05:20:33;;;;;;;8.48;4.60;;;;;;;23.93;47.52;101480.78;5055576;28;20040;-72
2023/05/09 05:22:58;;;;;;;9.27;5.03;;;;;;;24.88;45.88;101475.28;5050529;28;20033;-72
2023/05/09 05:25:27;;;;;;;8.23;4.82;;;;;;;24.63;46.16;101475.88;5059681;28;20036;-72
2023/05/09 05:27:52;;;;;;;12.73;6.07;;;;;;;25.21;45.51;101466.16;5054444;28;20043;-72
2023/05/09 05:30:19;;;;;;;9.82;4.50;;;;;;;25.38;44.25;101472.28;5062089;28;20033;-72
2023/05/09 05:32:45;;;;;;;7.68;4.65;;;;;;;25.08;45.56;101472.34;5052234;28;20036;-72
2023/05/09 05:35:10;;;;;;;9.02;4.80;;;;;;;24.73;46.65;101470.88;5053825;28;20477;-72
2023/05/09 05:37:39;;;;;;;10.25;4.53;;;;;;;24.83;45.72;101472.03;5057875;28;20032;-72
2023/05/09 05:40:06;;;;;;;11.20;4.55;;;;;;;24.10;47.14;101467.34;5059701;28;20083;-71
2023/05/09 05:42:31;;;;;;;6.82;4.13;;;;;;;24.03;48.24;101480.19;5054009;28;20476;-72
2023/05/09 05:45:03;;;;;;;8.90;4.28;;;;;;;22.47;51.27;101480.38;5066358;28;20079;-71
2023/05/09 05:47:35;;;;;;;7.00;4.40;;;;;;;23.30;50.64;101472.59;5064968;28;20527;-72
2023/05/09 05:50:05;;;;;;;7.47;4.30;;;;;;;23.72;49.20;101473.00;5058162;28;20544;-72
2023/05/09 05:52:31;;;;;;;8.57;4.15;;;;;;;24.21;48.35;101478.28;5069833;28;20020;-71
2023/05/09 05:54:56;;;;;;;7.22;4.13;;;;;;;23.97;49.05;101477.84;5052293;28;20578;-72
2023/05/09 05:57:21;;;;;;;7.82;4.75;;;;;;;23.49;49.33;101467.13;5059308;28;20052;-71
2023/05/09 05:59:48;;;;;;;7.93;4.20;;;;;;;23.18;50.43;101468.78;5055394;28;20112;-71
2023/05/09 06:02:14;;;;;;;9.02;4.38;;;;;;;23.12;51.05;101469.13;5050601;28;20086;-71
2023/05/09 06:04:40;;;;;;;10.65;4.55;;;;;;;23.66;50.13;101460.88;5050600;28;20502;-71
2023/05/09 06:07:06;;;;;;;7.03;4.18;;;;;;;24.38;48.24;101460.41;5052460;28;20035;-71
2023/05/09 06:09:31;;;;;;;7.28;4.28;;;;;;;23.41;50.65;101453.34;5055446;28;20028;-65
2023/05/09 06:11:56;;;;;;;9.90;4.47;;;;;;;24.27;49.26;101468.19;5057950;28;20024;-64
2023/05/09 06:14:22;;;;;;;7.88;4.15;;;;;;;24.25;49.17;101459.41;5049565;28;20041;-64
2023/05/09 06:16:47;;;;;;;12.63;4.28;;;;;;;23.84;49.98;101445.63;5047077;28;20053;-64
2023/05/09 06:19:13;;;;;;;8.25;4.53;;;;;;;24.45;47.81;101445.72;5055678;28;20043;-64
2023/05/09 06:21:38;;;;;;;10.07;4.60;;;;;;;24.10;48.74;101439.78;5052709;28;20108;-64
2023/05/09 06:24:07;;;;;;;6.97;3.92;;;;;;;23.73;50.03;101448.03;5058586;28;20392;-69
2023/05/09 06:26:32;;;;;;;8.13;4.55;;;;;;;24.06;49.70;101449.78;5051499;28;20103;-64
2023/05/09 06:28:57;;;;;;;8.23;4.07;;;;;;;24.14;49.63;101441.31;5066085;28;20053;-64
2023/05/09 06:31:23;;;;;;;11.07;4.43;;;;;;;23.55;50.74;101439.25;5060159;28;20409;-64
2023/05/09 06:33:48;;;;;;;9.38;4.57;;;;;;;23.48;51.24;101443.19;5048394;28;20059;-64
2023/05/09 06:36:13;;;;;;;7.45;4.28;;;;;;;23.03;52.21;101434.91;5065006;28;20109;-64
2023/05/09 06:38:39;;;;;;;7.93;4.50;;;;;;;23.13;52.57;101433.50;5052621;28;20029;-64
2023/05/09 06:41:04;;;;;;;8.43;4.43;;;;;;;23.74;51.34;101436.44;5063591;28;20032;-63
2023/05/09 06:43:30;;;;;;;9.85;4.45;;;;;;;24.20;49.84;101436.47;5053131;28;20021;-63
2023/05/09 06:45:56;;;;;;;7.28;4.30;;;;;;;23.35;51.62;101425.19;5064010;28;20028;-64
2023/05/09 06:48:22;;;;;;;8.27;4.63;;;;;;;22.72;53.27;101428.50;5053309;28;20024;-71
2023/05/09 06:50:48;;;;;;;7.07;3.88;;;;;;;23.35;53.01;101419.00;5054816;28;20021;-71
2023/05/09 06:53:14;;;;;;;15.02;5.45;;;;;;;23.04;52.82;101425.97;5054443;28;20025;-70
2023/05/09 06:55:39;;;;;;;8.13;4.22;;;;;;;24.22;50.31;101418.56;5057842;28;20041;-71
2023/05/09 06:58:05;;;;;;;8.38;4.22;;;;;;;23.92;50.30;101415.88;5058509;28;20032;-71
2023/05/09 07:00:30;;;;;;;8.30;3.92;;;;;;;24.24;49.49;101420.31;5053875;28;20025;-71
2023/05/09 07:02:56;;;;;;;7.22;3.83;;;;;;;23.31;51.59;101404.13;5058748;28;20126;-70
2023/05/09 07:05:21;;;;;;;8.27;4.18;;;;;;;23.16;52.42;101411.13;5059018;28;20016;-71
2023/05/09 07:07:47;;;;;;;13.15;4.72;;;;;;;23.95;51.25;101404.16;5059291;28;20113;-70
2023/05/09 07:10:12;;;;;;;10.43;4.10;;;;;;;23.12;52.81;101394.47;5054476;28;20025;-71
2023/05/09 07:12:38;;;;;;;7.55;4.75;;;;;;;23.38;52.57;101394.81;5060850;28;20409;-71
2023/05/09 07:15:07;;;;;;;8.80;4.50;;;;;;;23.31;53.83;101391.63;5058715;28;20055;-71
2023/05/09 07:17:32;;;;;;;11.75;4.65;;;;;;;23.29;54.19;101390.03;5048279;28;20469;-71
2023/05/09 07:19:58;;;;;;;7.75;4.57;;;;;;;23.16;53.84;101380.03;5049633;28;20044;-71
2023/05/09 07:22:23;;;;;;;8.90;4.75;;;;;;;23.50;52.29;101375.47;5052087;28;20035;-71
2023/05/09 07:24:49;;;;;;;8.32;4.57;;;;;;;23.53;53.18;101378.00;5062935;28;20055;-73
2023/05/09 07:27:15;;;;;;;9.68;4.55;;;;;;;24.46;50.30;101364.63;5061193;28;20048;-71
2023/05/09 07:29:40;;;;;;;7.85;4.55;;;;;;;23.65;52.14;101370.22;5072599;28;20105;-71
2023/05/09 07:32:06;;;;;;;11.77;4.90;;;;;;;24.26;51.20;101354.28;5072040;28;20028;-72
2023/05/09 07:34:31;;;;;;;7.85;4.57;;;;;;;23.85;52.95;101359.28;5071485;28;20021;-72
2023/05/09 07:36:57;;;;;;;8.32;5.30;;;;;;;24.38;50.81;101358.91;5072852;28;20055;-72
2023/05/09 07:39:22;;;;;;;7.78;5.03;;;;;;;24.84;50.05;101355.25;5054216;28;20029;-72
2023/05/09 07:41:48;;;;;;;8.50;4.60;;;;;;;24.29;51.64;101352.31;5054805;28;20029;-72
2023/05/09 07:44:13;;;;;;;8.45;4.90;;;;;;;24.08;50.79;101346.41;5064412;28;20023;-73
2023/05/09 07:46:40;;;;;;;8.95;5.03;;;;;;;24.48;50.08;101341.38;5073707;28;20107;-72
2023/05/09 07:49:06;;;;;;;7.22;4.32;;;;;;;24.55;51.05;101341.84;5071021;28;20024;-72
2023/05/09 07:51:32;;;;;;;8.07;4.60;;;;;;;24.42;50.82;101344.41;5063761;28;20033;-72
2023/05/09 07:53:57;;;;;;;7.78;4.60;;;;;;;24.42;51.07;101339.06;5064620;28;20049;-72
2023/05/09 07:56:23;;;;;;;7.88;4.80;;;;;;;23.65;53.31;101340.88;5057712;28;20332;-72
2023/05/09 07:58:48;;;;;;;7.22;4.55;;;;;;;23.71;54.08;101343.19;5071585;28;20048;-72
2023/05/09 08:01:14;;;;;;;7.78;5.00;;;;;;;23.70;54.06;101331.66;5070329;28;20478;-64
2023/05/09 08:03:40;;;;;;;9.38;4.80;;;;;;;23.96;52.24;101325.78;5055787;28;20025;-65
2023/05/09 08:06:05;;;;;;;8.15;4.60;;;;;;;23.13;56.03;101326.84;5050782;28;20132;-64
2023/05/09 08:08:31;;;;;;;11.07;5.05;;;;;;;23.09;55.21;101322.59;5058101;28;20016;-65
2023/05/09 08:10:56;;;;;;;12.00;4.97;;;;;;;22.96;55.69;101316.25;5060089;28;20088;-65
2023/05/09 08:13:22;;;;;;;8.70;5.10;;;;;;;23.24;55.37;101317.41;5054732;28;20094;-64
2023/05/09 08:15:47;;;;;;;9.52;5.15;;;;;;;22.69;57.92;101308.78;5065572;28;20031;-64
2023/05/09 08:18:13;;;;;;;11.52;5.43;;;;;;;23.50;54.91;101306.13;5051182;28;20078;-64
2023/05/09 08:20:39;;;;;;;8.55;4.40;;;;;;;23.23;55.47;101300.53;5051130;28;20036;-64
2023/05/09 08:23:04;;;;;;;9.00;4.80;;;;;;;23.13;55.74;101297.53;5049414;28;20473;-65
2023/05/09 08:25:30;;;;;;;7.20;4.43;;;;;;;23.28;55.32;101292.28;5062100;28;20027;-65
2023/05/09 08:27:55;;;;;;;7.03;4.05;;;;;;;22.71;55.63;101290.94;5063097;28;20024;-64
2023/05/09 08:30:21;;;;;;;6.32;3.95;;;;;;;23.82;54.00;101287.41;5067207;28;20020;-65
2023/05/09 08:32:46;;;;;;;6.68;3.80;;;;;;;24.11;52.26;101282.16;5070806;28;20541;-65
2023/05/09 08:35:12;;;;;;;7.15;3.88;;;;;;;23.53;54.26;101279.28;5061779;28;20031;-65
2023/05/09 08:37:37;;;;;;;6.97;3.47;;;;;;;22.97;56.37;101284.16;5050219;28;20031;-65
2023/05/09 08:40:06;;;;;;;6.57;3.80;;;;;;;23.60;54.03;101281.59;5049669;28;20104;-65
2023/05/09 08:42:34;;;;;;;7.88;3.70;;;;;;;23.45;54.95;101286.00;5050711;28;20055;-65
2023/05/09 08:45:05;;;;;;;7.93;3.83;;;;;;;23.66;53.96;101281.25;5049935;28;20242;-65
2023/05/09 08:47:34;;;;;;;8.95;4.18;;;;;;;22.62;56.80;101278.09;5050484;28;20033;-65
2023/05/09 08:50:01;;;;;;;6.47;4.25;;;;;;;23.07;54.81;101270.31;5051930;28;20039;-65
2023/05/09 08:52:29;;;;;;;4.97;3.35;;;;;;;23.85;53.72;101257.84;5049271;28;20396;-65
2023/05/09 08:54:55;;;;;;;4.63;2.75;;;;;;;23.04;55.92;101264.22;5051747;28;20049;-65
2023/05/09 08:57:21;;;;;;;4.28;2.95;;;;;;;23.38;54.99;101261.47;5050010;28;20555;-65
2023/05/09 08:59:48;;;;;;;5.38;3.33;;;;;;;22.92;55.34;101269.38;5049899;28;20167;-65
2023/05/09 09:02:14;;;;;;;4.43;2.97;;;;;;;23.77;53.56;101257.44;5050085;28;20104;-65
2023/05/09 09:04:39;;;;;;;6.43;2.90;;;;;;;22.30;56.42;101259.34;5050191;28;20025;-65
2023/05/09 09:07:06;;;;;;;5.00;3.10;;;;;;;23.30;56.27;101255.72;5049171;28;20024;-66
2023/05/09 09:09:35;;;;;;;3.03;2.40;;;;;;;23.85;53.24;101256.97;5051741;28;20178;-65
2023/05/09 09:12:05;;;;;;;3.35;2.78;;;;;;;23.74;54.43;101257.63;5050191;28;20023;-65
2023/05/09 09:14:36;;;;;;;3.38;2.22;;;;;;;22.78;55.58;101254.13;5050811;28;20028;-66
2023/05/09 09:17:08;;;;;;;4.47;2.60;;;;;;;22.97;57.52;101253.97;5051527;28;20028;-68
2023/05/09 09:19:36;;;;;;;5.10;3.05;;;;;;;22.56;57.93;101251.78;5050624;28;20108;-67
2023/05/09 09:22:06;;;;;;;4.15;2.78;;;;;;;22.74;59.60;101245.47;5050151;28;20032;-68
2023/05/09 09:24:33;;;;;;;4.63;3.20;;;;;;;23.66;55.90;101234.06;5049921;28;20115;-68
2023/05/09 09:27:06;;;;;;;5.18;3.20;;;;;;;24.50;52.68;101229.06;5049559;28;20119;-68
2023/05/09 09:29:32;;;;;;;4.25;3.03;;;;;;;23.11;57.96;101240.75;5050062;28;20396;-68
2023/05/09 09:32:01;;;;;;;5.13;3.10;;;;;;;22.93;58.04;101239.09;5051010;28;20029;-65
2023/05/09 09:34:27;;;;;;;4.53;2.80;;;;;;;23.49;55.80;101232.41;5048496;28;20037;-68
2023/05/09 09:36:53;;;;;;;3.90;3.00;;;;;;;23.09;57.39;101233.78;5051145;28;20086;-67
2023/05/09 09:39:20;;;;;;;4.55;2.95;;;;;;;22.68;58.69;101235.13;5049181;28;20510;-68
2023/05/09 09:41:46;;;;;;;5.40;3.40;;;;;;;21.97;62.25;101233.53;5049192;28;20056;-67
2023/05/09 09:44:20;;;;;;;6.70;3.20;;;;;;;22.13;60.94;101237.13;5049292;28;20063;-68
2023/05/09 09:46:50;;;;;;;7.13;3.03;;;;;;;21.56;63.49;101245.31;5049590;28;20393;-68
2023/05/09 09:49:18;;;;;;;4.82;2.78;;;;;;;22.74;61.47;101234.81;5048419;28;20388;-68
2023/05/09 09:51:44;;;;;;;5.35;3.08;;;;;;;23.28;56.62;101230.97;5049465;28;20033;-68
2023/05/09 09:54:11;;;;;;;6.55;3.75;;;;;;;23.33;57.64;101228.91;5048747;28;20099;-68
2023/05/09 09:56:45;;;;;;;6.55;3.63;;;;;;;22.78;60.53;101231.03;5050170;28;20025;-68
2023/05/09 09:59:12;;;;;;;4.45;3.47;;;;;;;23.46;57.00;101221.03;5048868;28;20056;-70
2023/05/09 10:01:53;;;;;;;4.90;3.50;;;;;;;23.53;56.84;101225.94;5050024;28;20021;-67
2023/05/09 10:04:18;;;;;;;5.63;3.90;;;;;;;21.79;64.02;101219.34;5049000;28;20033;-66
2023/05/09 10:06:55;;;;;;;5.65;3.42;;;;;;;22.43;62.18;101223.13;5049455;28;20514;-67
2023/05/09 10:09:22;;;;;;;4.80;3.47;;;;;;;23.16;58.77;101219.19;5047863;28;20116;-67
2023/05/09 10:11:50;;;;;;;7.03;4.55;;;;;;;23.56;57.70;101216.88;5050549;28;20025;-67
2023/05/09 10:14:17;;;;;;;8.23;4.13;;;;;;;23.16;59.69;101213.84;5048481;28;20059;-67
2023/05/09 10:16:43;;;;;;;6.70;4.03;;;;;;;23.35;58.03;101218.97;5048276;28;20036;-67
2023/05/09 10:19:10;;;;;;;5.90;3.47;;;;;;;23.09;60.04;101213.28;5048361;28;20021;-67
2023/05/09 10:21:37;;;;;;;6.47;3.85;;;;;;;23.20;58.59;101208.28;5049037;28;20581;-67
2023/05/09 10:24:07;;;;;;;6.35;3.85;;;;;;;22.95;57.95;101213.22;5048042;28;20115;-67
2023/05/09 10:26:36;;;;;;;7.28;3.88;;;;;;;22.94;59.61;101209.69;5049004;28;20023;-67
2023/05/09 10:29:09;;;;;;;5.68;3.70;;;;;;;22.78;61.02;101209.72;5048640;28;20020;-67
2023/05/09 10:31:38;;;;;;;6.30;3.95;;;;;;;23.59;57.98;101199.81;5048001;28;20035;-67
2023/05/09 10:34:09;;;;;;;6.78;3.63;;;;;;;23.76;56.62;101202.34;5048592;28;20078;-67
2023/05/09 10:36:35;;;;;;;7.15;4.30;;;;;;;22.87;61.00;101193.22;5049066;28;20025;-67
2023/05/09 10:39:01;;;;;;;4.88;4.15;;;;;;;23.25;60.04;101185.81;5048471;28;20083;-67
2023/05/09 10:41:27;;;;;;;5.63;3.80;;;;;;;23.78;57.57;101184.44;5047977;28;20074;-68
2023/05/09 10:43:56;;;;;;;7.78;3.85;;;;;;;22.44;63.43;101195.56;5047727;28;20595;-67
2023/05/09 10:46:22;;;;;;;6.07;3.78;;;;;;;23.44;59.48;101183.78;5049636;28;20440;-67
2023/05/09 10:48:48;;;;;;;6.80;4.05;;;;;;;23.25;60.10;101173.31;5048432;28;20025;-67
2023/05/09 10:51:15;;;;;;;5.47;3.80;;;;;;;23.27;60.10;101165.22;5047067;28;20033;-67
2023/05/09 10:53:47;;;;;;;6.10;4.10;;;;;;;22.25;63.66;101173.50;5048544;28;20045;-67
2023/05/09 10:56:31;;;;;;;8.10;4.13;;;;;;;23.10;61.17;101177.69;5049162;28;20095;-67
2023/05/09 10:58:57;;;;;;;7.15;4.60;;;;;;;23.16;59.85;101165.84;5048933;28;20374;-67
2023/05/09 11:01:29;;;;;;;7.97;5.07;;;;;;;24.22;56.41;101172.88;5048815;28;20032;-67
2023/05/09 11:03:57;;;;;;;5.88;4.80;;;;;;;23.28;57.53;101165.13;5048186;28;20032;-66
2023/05/09 11:06:40;;;;;;;5.10;3.83;;;;;;;22.43;62.99;101161.88;5047047;28;20099;-66
2023/05/09 11:09:28;;;;;;;6.57;4.70;;;;;;;23.05;60.03;101163.78;5049212;28;20021;-66
2023/05/09 11:12:07;;;;;;;7.20;4.82;;;;;;;23.29;60.36;101160.69;5047736;28;20063;-67
2023/05/09 11:14:41;;;;;;;7.78;4.97;;;;;;;24.29;56.24;101148.44;5048367;28;20025;-67
2023/05/09 11:17:08;;;;;;;7.45;4.80;;;;;;;24.07;56.79;101152.47;5049114;28;20551;-66
2023/05/09 11:20:02;;;;;;;8.48;5.18;;;;;;;22.75;61.71;101156.59;5048752;28;20090;-67
2023/05/09 11:22:31;;;;;;;6.75;4.63;;;;;;;23.11;61.10;101147.44;5042544;28;20556;-66